Emerald 1 — JI3670 — position and weather

sailwx.info

Track history (hours):
 
Tides and Currents Weather Stations Pressure Air Temp Water Temp Dewpoint Dewpoint Depression Visibility Wind Speed Wind Dir Waves Ship Positions

Emerald 1

Last reported at 2017-Dec-11 12:54 UTC. Time now 2017-Dec-12 02:46 UTC.
Position N 34°27' E 134°01'.

Length 118 m; draft 4.2 m.

Type: Other ship. MMSI: 431301484.

Date/timePositionNaut miles runAvg speedWind from/ knotsBaromVisibWave heightAir tempDewpointWater temp
2017-Dec-11 12:54N 34°27' E 134°01'5 6.0
2017-Dec-11 12:02N 34°31' E 134°03'1 5.8
2017-Dec-11 11:54N 34°32' E 134°04'23 6.3
2017-Dec-11 08:19N 34°41' E 134°29'3 6.9
2017-Dec-11 07:54N 34°42' E 134°33'3 6.9
2017-Dec-11 07:30N 34°41' E 134°36'3 7.0
2017-Dec-11 07:00N 34°40' E 134°40'4 6.9
2017-Dec-11 06:29N 34°39' E 134°44'3 7.3
2017-Dec-11 06:00N 34°38' E 134°48'4 8.1
2017-Dec-11 05:30N 34°37' E 134°53'4 8.2
2017-Dec-11 05:00N 34°38' E 134°58'4 8.5
2017-Dec-11 04:30N 34°37' E 135°03'4 7.3
2017-Dec-11 04:00N 34°36' E 135°08'4 7.3
2017-Dec-11 03:30N 34°37' E 135°12'4 7.5
2017-Dec-11 03:00N 34°38' E 135°16'4 7.1
2017-Dec-11 02:30N 34°41' E 135°19'2 3.2
2017-Dec-11 02:00N 34°42' E 135°18'1 1.3
2017-Dec-11 01:29N 34°43' E 135°18'0 0.0
2017-Dec-11 00:59N 34°43' E 135°18'0 0.0
2017-Dec-11 00:29N 34°43' E 135°18'0 0.0
2017-Dec-10 23:59N 34°43' E 135°18'0 0.0
2017-Dec-10 23:29N 34°43' E 135°18'0 0.0
2017-Dec-10 22:59N 34°43' E 135°18'0 0.0
2017-Dec-10 22:29N 34°43' E 135°18'0 0.0
2017-Dec-10 21:59N 34°43' E 135°18'0 0.0
2017-Dec-10 21:29N 34°43' E 135°18'0 0.0
2017-Dec-10 20:59N 34°43' E 135°18'0 0.0
2017-Dec-10 20:29N 34°43' E 135°18'0 0.0
2017-Dec-10 19:59N 34°43' E 135°18'0 0.0
2017-Dec-10 19:29N 34°43' E 135°18'0 0.0
2017-Dec-10 18:59N 34°43' E 135°18'0 0.0
2017-Dec-10 18:29N 34°43' E 135°18'0 0.0
2017-Dec-10 17:59N 34°43' E 135°18'0 0.0
2017-Dec-10 17:29N 34°43' E 135°18'0 0.0
2017-Dec-10 16:59N 34°43' E 135°18'0 0.0
2017-Dec-10 16:29N 34°43' E 135°18'0 0.0
2017-Dec-10 15:59N 34°43' E 135°18'0 0.0
2017-Dec-10 15:29N 34°43' E 135°18'0 0.0
2017-Dec-10 14:59N 34°43' E 135°18'0 0.0
2017-Dec-10 14:29N 34°43' E 135°18'0 0.0
2017-Dec-10 13:59N 34°43' E 135°18'0 0.0
2017-Dec-10 13:29N 34°43' E 135°18'0 0.0
2017-Dec-10 12:59N 34°43' E 135°18'0 0.0
2017-Dec-10 12:29N 34°43' E 135°18'0 0.0
2017-Dec-10 11:59N 34°43' E 135°18'0 0.0
2017-Dec-10 11:29N 34°43' E 135°18'0 0.0
2017-Dec-10 10:59N 34°43' E 135°18'0 0.0
2017-Dec-10 10:29N 34°43' E 135°18'0 0.0
2017-Dec-10 09:59N 34°43' E 135°18'0 0.0
2017-Dec-10 09:29N 34°43' E 135°18'0 0.0
2017-Dec-10 08:59N 34°43' E 135°18'0 0.0
2017-Dec-10 08:29N 34°43' E 135°18'0 0.0
2017-Dec-10 07:56N 34°43' E 135°18'0 0.0
2017-Dec-10 07:29N 34°43' E 135°18'0 0.0
2017-Dec-10 06:59N 34°43' E 135°18'0 0.0
2017-Dec-10 06:29N 34°43' E 135°18'0 0.0
2017-Dec-10 05:59N 34°43' E 135°18'0 0.0
2017-Dec-10 05:29N 34°43' E 135°18'0 0.0
2017-Dec-10 04:59N 34°43' E 135°18'0 0.0
2017-Dec-10 04:29N 34°43' E 135°18'0 0.0
2017-Dec-10 03:59N 34°43' E 135°18'0 0.0
2017-Dec-10 03:29N 34°43' E 135°18'0 0.0
2017-Dec-10 02:59N 34°43' E 135°18'0 0.0
2017-Dec-10 02:26N 34°43' E 135°18'0 0.0
2017-Dec-10 01:59N 34°43' E 135°18'0 0.0
2017-Dec-10 01:29N 34°43' E 135°18'2 4.2
2017-Dec-10 01:01N 34°41' E 135°19'2 4.2
2017-Dec-10 00:30N 34°41' E 135°17'2 4.8
2017-Dec-10 00:01N 34°40' E 135°14'0 0.0
2017-Dec-09 23:29N 34°40' E 135°14'0 0.0
2017-Dec-09 22:59N 34°40' E 135°14'0 0.0
2017-Dec-09 22:29N 34°40' E 135°14'0 0.0
2017-Dec-09 21:59N 34°40' E 135°14'0 0.0
2017-Dec-09 21:29N 34°40' E 135°14'0 0.0
2017-Dec-09 20:59N 34°40' E 135°14'0 0.0
2017-Dec-09 20:29N 34°40' E 135°14'0 0.0
2017-Dec-09 19:59N 34°40' E 135°14'0 0.0
2017-Dec-09 19:29N 34°40' E 135°14'0 0.0
2017-Dec-09 18:59N 34°40' E 135°14'0 0.0
2017-Dec-09 18:29N 34°40' E 135°14'0 0.0
2017-Dec-09 17:59N 34°40' E 135°14'0 0.0
2017-Dec-09 17:29N 34°40' E 135°14'0 0.0
2017-Dec-09 16:59N 34°40' E 135°14'0 0.0
2017-Dec-09 16:29N 34°40' E 135°14'0 0.0
2017-Dec-09 15:59N 34°40' E 135°14'0 0.0
2017-Dec-09 15:29N 34°40' E 135°14'0 0.0
2017-Dec-09 14:59N 34°40' E 135°14'0 0.0
2017-Dec-09 14:29N 34°40' E 135°14'0 0.0
2017-Dec-09 13:59N 34°40' E 135°14'0 0.0
2017-Dec-09 13:29N 34°40' E 135°14'0 0.0
2017-Dec-09 12:59N 34°40' E 135°14'0 0.0
2017-Dec-09 12:26N 34°40' E 135°14'0 0.0
2017-Dec-09 11:59N 34°40' E 135°14'0 0.0
2017-Dec-09 11:29N 34°40' E 135°14'0 0.0
2017-Dec-09 10:59N 34°40' E 135°14'0 0.0
2017-Dec-09 10:29N 34°40' E 135°14'0 0.0
2017-Dec-09 09:59N 34°40' E 135°14'0 0.0
2017-Dec-09 09:29N 34°40' E 135°14'0 0.0
2017-Dec-09 08:59N 34°40' E 135°14'0 0.0
2017-Dec-09 08:29N 34°40' E 135°14'0 0.0
2017-Dec-09 07:59N 34°40' E 135°14'0 0.0
2017-Dec-09 07:26N 34°40' E 135°14'0 0.0
2017-Dec-09 06:59N 34°40' E 135°14'0 0.0
2017-Dec-09 06:30N 34°40' E 135°14'1 2.8
2017-Dec-09 06:00N 34°41' E 135°15'0 0.0
2017-Dec-09 05:30N 34°41' E 135°15'0 0.0
2017-Dec-09 05:00N 34°41' E 135°15'0 0.0
2017-Dec-09 04:30N 34°41' E 135°15'0 0.0
2017-Dec-09 04:00N 34°41' E 135°15'0 0.0
2017-Dec-09 03:30N 34°41' E 135°15'0 0.1
2017-Dec-09 03:01N 34°41' E 135°15'3 6.5
2017-Dec-09 02:30N 34°38' E 135°14'4 7.9
2017-Dec-09 02:01N 34°36' E 135°10'4 8.5
2017-Dec-09 01:30N 34°35' E 135°05'3 6.3
2017-Dec-09 01:00N 34°37' E 135°02'3 5.8
2017-Dec-09 00:30N 34°36' E 134°58'4 8.1
2017-Dec-09 00:01N 34°35' E 134°54'4 8.6
2017-Dec-08 23:31N 34°33' E 134°49'4 8.5
2017-Dec-08 23:00N 34°31' E 134°44'4 8.6
2017-Dec-08 22:30N 34°30' E 134°39'4 8.4
2017-Dec-08 22:00N 34°28' E 134°34'4 8.6
2017-Dec-08 21:30N 34°27' E 134°30'4 8.4
2017-Dec-08 21:00N 34°25' E 134°25'4 8.8
2017-Dec-08 20:30N 34°24' E 134°20'6 9.4
2017-Dec-08 19:54N 34°24' E 134°13'4 9.8
2017-Dec-08 19:28N 34°26' E 134°08'69 7.9
2017-Dec-08 10:47N 34°06' E 132°48'3 7.3
2017-Dec-08 10:24N 34°05' E 132°45'3 7.5
2017-Dec-08 10:00N 34°03' E 132°42'4 7.5
2017-Dec-08 09:30N 34°01' E 132°38'4 7.3
2017-Dec-08 09:00N 33°59' E 132°35'3 6.2
2017-Dec-08 08:30N 33°57' E 132°32'3 6.7
2017-Dec-08 08:00N 33°55' E 132°29'6 7.0
2017-Dec-08 07:06N 33°51' E 132°23'1 6.1
2017-Dec-08 07:00N 33°50' E 132°22'5 7.6
2017-Dec-08 06:24N 33°50' E 132°17'4 8.1
2017-Dec-08 05:54N 33°49' E 132°12'3 7.7
2017-Dec-08 05:30N 33°48' E 132°09'4 8.0
2017-Dec-08 05:00N 33°46' E 132°05'7 7.6
2017-Dec-08 04:08N 33°49' E 131°58'8 8.3
2017-Dec-08 03:09N 33°54' E 131°50'1 8.1
2017-Dec-08 02:59N 33°55' E 131°49'4 8.0
2017-Dec-08 02:26N 33°59' E 131°45'3 7.5
2017-Dec-08 02:00N 34°01' E 131°46'1 0.4
2017-Dec-07 23:01N 34°02' E 131°47'0 0.1
2017-Dec-07 22:56N 34°02' E 131°47'2 4.1
2017-Dec-07 22:30N 34°01' E 131°45'1 1.2
2017-Dec-07 21:56N 34°01' E 131°45'0 0.0
2017-Dec-07 21:20N 34°01' E 131°45'0 0.0
2017-Dec-07 20:56N 34°01' E 131°45'0 0.0
2017-Dec-07 20:26N 34°01' E 131°45'0 0.1
2017-Dec-07 19:56N 34°01' E 131°45'0 0.0
2017-Dec-07 19:02N 34°01' E 131°45'0 0.1
2017-Dec-07 18:56N 34°01' E 131°45'0 0.0
2017-Dec-07 18:17N 34°01' E 131°45'0 0.1
2017-Dec-07 17:44N 34°01' E 131°45'0 0.2
2017-Dec-07 17:26N 34°01' E 131°45'0 1.0
2017-Dec-07 16:59N 34°00' E 131°45'3 7.1
2017-Dec-07 16:30N 33°57' E 131°46'4 7.5
2017-Dec-07 16:00N 33°55' E 131°50'4 7.7
2017-Dec-07 15:30N 33°52' E 131°53'4 7.8
2017-Dec-07 15:00N 33°50' E 131°57'4 8.0
2017-Dec-07 14:30N 33°47' E 132°01'3 6.5
2017-Dec-07 13:59N 33°47' E 132°04'4 7.8
2017-Dec-07 13:28N 33°48' E 132°09'4 7.1
2017-Dec-07 12:55N 33°50' E 132°13'3 7.5
2017-Dec-07 12:30N 33°50' E 132°17'4 7.3
2017-Dec-07 11:59N 33°50' E 132°22'5 7.4
2017-Dec-07 11:17N 33°50' E 132°28'2 7.8
2017-Dec-07 10:58N 33°50' E 132°31'4 7.6
2017-Dec-07 10:29N 33°51' E 132°35'4 7.8
2017-Dec-07 10:00N 33°51' E 132°40'2 3.8
2017-Dec-07 09:30N 33°51' E 132°42'0 0.0
2017-Dec-07 08:49N 33°51' E 132°42'0 0.6
2017-Dec-07 08:31N 33°51' E 132°42'5 9.4
2017-Dec-07 07:59N 33°56' E 132°43'  
2017-Dec-04 05:22N 34°29' E 134°32'3 7.3
2017-Dec-04 04:57N 34°30' E 134°36'3 7.2
2017-Dec-04 04:30N 34°31' E 134°39'4 7.3
2017-Dec-04 04:00N 34°33' E 134°43'4 7.9
2017-Dec-04 03:30N 34°34' E 134°48'4 7.5
2017-Dec-04 03:00N 34°35' E 134°52'4 8.4
2017-Dec-04 02:30N 34°37' E 134°57'4 7.4
2017-Dec-04 02:00N 34°37' E 135°01'4 7.9
2017-Dec-04 01:30N 34°36' E 135°06'4 8.6
2017-Dec-04 01:00N 34°37' E 135°11'4 8.4
2017-Dec-04 00:30N 34°38' E 135°16'4 7.7
2017-Dec-04 00:00N 34°41' E 135°19'2 4.3
2017-Dec-03 23:31N 34°43' E 135°18'0 0.4
2017-Dec-03 22:59N 34°43' E 135°18'0 0.0
2017-Dec-03 22:29N 34°43' E 135°18'0 0.0
2017-Dec-03 21:59N 34°43' E 135°18'0 0.0
2017-Dec-03 21:29N 34°43' E 135°18'0 0.0
2017-Dec-03 20:59N 34°43' E 135°18'0 0.0
2017-Dec-03 20:29N 34°43' E 135°18'0 0.0
2017-Dec-03 19:59N 34°43' E 135°18'0 0.0
2017-Dec-03 19:29N 34°43' E 135°18'0 0.0
2017-Dec-03 18:59N 34°43' E 135°18'0 0.0
2017-Dec-03 18:29N 34°43' E 135°18'0 0.0
2017-Dec-03 17:59N 34°43' E 135°18'0 0.0
2017-Dec-03 17:29N 34°43' E 135°18'0 0.0
2017-Dec-03 16:59N 34°43' E 135°18'0 0.0
2017-Dec-03 16:29N 34°43' E 135°18'0 0.0
2017-Dec-03 15:59N 34°43' E 135°18'0 0.0
2017-Dec-03 15:29N 34°43' E 135°18'0 0.0
2017-Dec-03 14:59N 34°43' E 135°18'0 0.0
2017-Dec-03 14:29N 34°43' E 135°18'0 0.0
2017-Dec-03 13:59N 34°43' E 135°18'0 0.0
2017-Dec-03 13:29N 34°43' E 135°18'0 0.0
2017-Dec-03 12:59N 34°43' E 135°18'0 0.0
2017-Dec-03 12:29N 34°43' E 135°18'0 0.0
2017-Dec-03 11:59N 34°43' E 135°18'0 0.0
2017-Dec-03 11:29N 34°43' E 135°18'0 0.0
2017-Dec-03 10:59N 34°43' E 135°18'0 0.0
2017-Dec-03 10:29N 34°43' E 135°18'0 0.0
2017-Dec-03 09:59N 34°43' E 135°18'0 0.0
2017-Dec-03 09:29N 34°43' E 135°18'0 0.0
2017-Dec-03 08:59N 34°43' E 135°18'0 0.0
2017-Dec-03 08:29N 34°43' E 135°18'0 0.0
2017-Dec-03 07:59N 34°43' E 135°18'0 0.0
2017-Dec-03 07:29N 34°43' E 135°18'0 0.0
2017-Dec-03 06:59N 34°43' E 135°18'0 0.0
2017-Dec-03 06:29N 34°43' E 135°18'0 0.0
2017-Dec-03 05:59N 34°43' E 135°18'0 0.0
2017-Dec-03 05:29N 34°43' E 135°18'0 0.0
2017-Dec-03 04:59N 34°43' E 135°18'0 0.0
2017-Dec-03 04:29N 34°43' E 135°18'0 0.0
2017-Dec-03 03:59N 34°43' E 135°18'0 0.0
2017-Dec-03 03:29N 34°43' E 135°18'2 4.4
2017-Dec-03 03:00N 34°41' E 135°19'2 4.4
2017-Dec-03 02:31N 34°41' E 135°17'2 4.8
2017-Dec-03 02:01N 34°40' E 135°14'0 0.0
2017-Dec-03 01:28N 34°40' E 135°14'0 0.0
2017-Dec-03 00:58N 34°40' E 135°14'0 0.0
2017-Dec-03 00:28N 34°40' E 135°14'0 0.0
2017-Dec-02 23:58N 34°40' E 135°14'0 0.0
2017-Dec-02 23:28N 34°40' E 135°14'2 3.9
2017-Dec-02 23:00N 34°40' E 135°16'3 5.5
2017-Dec-02 22:30N 34°41' E 135°19'2 4.1
2017-Dec-02 21:58N 34°43' E 135°18'0 0.0
2017-Dec-02 21:28N 34°43' E 135°18'0 0.0
2017-Dec-02 20:58N 34°43' E 135°18'0 0.0
2017-Dec-02 20:28N 34°43' E 135°18'0 0.0
2017-Dec-02 19:58N 34°43' E 135°18'0 0.0
2017-Dec-02 19:28N 34°43' E 135°18'0 0.0
2017-Dec-02 18:58N 34°43' E 135°18'0 0.0
2017-Dec-02 18:28N 34°43' E 135°18'0 0.0
2017-Dec-02 17:58N 34°43' E 135°18'0 0.0
2017-Dec-02 17:28N 34°43' E 135°18'0 0.0
2017-Dec-02 16:58N 34°43' E 135°18'0 0.0
2017-Dec-02 16:28N 34°43' E 135°18'0 0.0
2017-Dec-02 15:58N 34°43' E 135°18'0 0.0
2017-Dec-02 15:28N 34°43' E 135°18'0 0.0
2017-Dec-02 14:58N 34°43' E 135°18'0 0.0
2017-Dec-02 14:28N 34°43' E 135°18'0 0.0
2017-Dec-02 13:58N 34°43' E 135°18'0 0.0
2017-Dec-02 13:28N 34°43' E 135°18'0 0.0
2017-Dec-02 12:58N 34°43' E 135°18'0 0.0
2017-Dec-02 12:28N 34°43' E 135°18'0 0.0
2017-Dec-02 11:58N 34°43' E 135°18'0 0.0
2017-Dec-02 11:28N 34°43' E 135°18'0 0.0
2017-Dec-02 10:58N 34°43' E 135°18'0 0.0
2017-Dec-02 10:28N 34°43' E 135°18'0 0.0
2017-Dec-02 09:58N 34°43' E 135°18'0 0.0
2017-Dec-02 09:28N 34°43' E 135°18'0 0.0
2017-Dec-02 08:58N 34°43' E 135°18'0 0.0
2017-Dec-02 08:28N 34°43' E 135°18'0 0.0
2017-Dec-02 07:58N 34°43' E 135°18'0 0.0
2017-Dec-02 07:28N 34°43' E 135°18'0 0.0
2017-Dec-02 06:58N 34°43' E 135°18'2 4.8
2017-Dec-02 06:30N 34°41' E 135°19'3 6.2
2017-Dec-02 06:00N 34°41' E 135°16'1 1.0
2017-Dec-02 05:30N 34°41' E 135°15'0 0.0
2017-Dec-02 05:00N 34°41' E 135°15'0 0.0
2017-Dec-02 04:30N 34°41' E 135°15'0 0.0
2017-Dec-02 04:00N 34°41' E 135°15'0 0.0
2017-Dec-02 03:30N 34°41' E 135°15'1 2.5
2017-Dec-02 03:00N 34°40' E 135°15'4 7.1
2017-Dec-02 02:30N 34°37' E 135°13'4 8.3
2017-Dec-02 02:00N 34°35' E 135°08'4 7.9
2017-Dec-02 01:30N 34°36' E 135°03'4 8.1
2017-Dec-02 01:00N 34°36' E 134°58'4 8.1
2017-Dec-02 00:30N 34°35' E 134°54'3 6.4
2017-Dec-02 00:00N 34°33' E 134°50'3 6.3
2017-Dec-01 23:30N 34°32' E 134°47'3 6.9
2017-Dec-01 23:00N 34°31' E 134°43'4 7.6
2017-Dec-01 22:30N 34°30' E 134°38'4 7.7
2017-Dec-01 22:00N 34°28' E 134°34'4 7.7
2017-Dec-01 21:30N 34°27' E 134°30'4 7.7
2017-Dec-01 21:00N 34°25' E 134°25'4 7.8
2017-Dec-01 20:30N 34°24' E 134°21'4 7.3
2017-Dec-01 20:00N 34°24' E 134°17'4 7.2
2017-Dec-01 19:30N 34°24' E 134°12'4 7.2
2017-Dec-01 19:00N 34°26' E 134°08'  
Track history (hours):
 
Tides and Currents Weather Stations Pressure Air Temp Water Temp Dewpoint Dewpoint Depression Visibility Wind Speed Wind Dir Waves Ship Positions

Emerald 1

Last reported at 2017-Dec-11 12:54 UTC. Time now 2017-Dec-12 02:46 UTC.
Position N 34°27' E 134°01'.

Length 118 m; draft 4.2 m.

Type: Other ship. MMSI: 431301484.

Date/timePositionNaut miles runAvg speedWind from/ knotsBaromVisibWave heightAir tempDewpointWater temp
2017-Dec-11 12:54N 34°27' E 134°01'5 6.0
2017-Dec-11 12:02N 34°31' E 134°03'1 5.8
2017-Dec-11 11:54N 34°32' E 134°04'23 6.3
2017-Dec-11 08:19N 34°41' E 134°29'3 6.9
2017-Dec-11 07:54N 34°42' E 134°33'3 6.9
2017-Dec-11 07:30N 34°41' E 134°36'3 7.0
2017-Dec-11 07:00N 34°40' E 134°40'4 6.9
2017-Dec-11 06:29N 34°39' E 134°44'3 7.3
2017-Dec-11 06:00N 34°38' E 134°48'4 8.1
2017-Dec-11 05:30N 34°37' E 134°53'4 8.2
2017-Dec-11 05:00N 34°38' E 134°58'4 8.5
2017-Dec-11 04:30N 34°37' E 135°03'4 7.3
2017-Dec-11 04:00N 34°36' E 135°08'4 7.3
2017-Dec-11 03:30N 34°37' E 135°12'4 7.5
2017-Dec-11 03:00N 34°38' E 135°16'4 7.1
2017-Dec-11 02:30N 34°41' E 135°19'2 3.2
2017-Dec-11 02:00N 34°42' E 135°18'1 1.3
2017-Dec-11 01:29N 34°43' E 135°18'0 0.0
2017-Dec-11 00:59N 34°43' E 135°18'0 0.0
2017-Dec-11 00:29N 34°43' E 135°18'0 0.0
2017-Dec-10 23:59N 34°43' E 135°18'0 0.0
2017-Dec-10 23:29N 34°43' E 135°18'0 0.0
2017-Dec-10 22:59N 34°43' E 135°18'0 0.0
2017-Dec-10 22:29N 34°43' E 135°18'0 0.0
2017-Dec-10 21:59N 34°43' E 135°18'0 0.0
2017-Dec-10 21:29N 34°43' E 135°18'0 0.0
2017-Dec-10 20:59N 34°43' E 135°18'0 0.0
2017-Dec-10 20:29N 34°43' E 135°18'0 0.0
2017-Dec-10 19:59N 34°43' E 135°18'0 0.0
2017-Dec-10 19:29N 34°43' E 135°18'0 0.0
2017-Dec-10 18:59N 34°43' E 135°18'0 0.0
2017-Dec-10 18:29N 34°43' E 135°18'0 0.0
2017-Dec-10 17:59N 34°43' E 135°18'0 0.0
2017-Dec-10 17:29N 34°43' E 135°18'0 0.0
2017-Dec-10 16:59N 34°43' E 135°18'0 0.0
2017-Dec-10 16:29N 34°43' E 135°18'0 0.0
2017-Dec-10 15:59N 34°43' E 135°18'0 0.0
2017-Dec-10 15:29N 34°43' E 135°18'0 0.0
2017-Dec-10 14:59N 34°43' E 135°18'0 0.0
2017-Dec-10 14:29N 34°43' E 135°18'0 0.0
2017-Dec-10 13:59N 34°43' E 135°18'0 0.0
2017-Dec-10 13:29N 34°43' E 135°18'0 0.0
2017-Dec-10 12:59N 34°43' E 135°18'0 0.0
2017-Dec-10 12:29N 34°43' E 135°18'0 0.0
2017-Dec-10 11:59N 34°43' E 135°18'0 0.0
2017-Dec-10 11:29N 34°43' E 135°18'0 0.0
2017-Dec-10 10:59N 34°43' E 135°18'0 0.0
2017-Dec-10 10:29N 34°43' E 135°18'0 0.0
2017-Dec-10 09:59N 34°43' E 135°18'0 0.0
2017-Dec-10 09:29N 34°43' E 135°18'0 0.0
2017-Dec-10 08:59N 34°43' E 135°18'0 0.0
2017-Dec-10 08:29N 34°43' E 135°18'0 0.0
2017-Dec-10 07:56N 34°43' E 135°18'0 0.0
2017-Dec-10 07:29N 34°43' E 135°18'0 0.0
2017-Dec-10 06:59N 34°43' E 135°18'0 0.0
2017-Dec-10 06:29N 34°43' E 135°18'0 0.0
2017-Dec-10 05:59N 34°43' E 135°18'0 0.0
2017-Dec-10 05:29N 34°43' E 135°18'0 0.0
2017-Dec-10 04:59N 34°43' E 135°18'0 0.0
2017-Dec-10 04:29N 34°43' E 135°18'0 0.0
2017-Dec-10 03:59N 34°43' E 135°18'0 0.0
2017-Dec-10 03:29N 34°43' E 135°18'0 0.0
2017-Dec-10 02:59N 34°43' E 135°18'0 0.0
2017-Dec-10 02:26N 34°43' E 135°18'0 0.0
2017-Dec-10 01:59N 34°43' E 135°18'0 0.0
2017-Dec-10 01:29N 34°43' E 135°18'2 4.2
2017-Dec-10 01:01N 34°41' E 135°19'2 4.2
2017-Dec-10 00:30N 34°41' E 135°17'2 4.8
2017-Dec-10 00:01N 34°40' E 135°14'0 0.0
2017-Dec-09 23:29N 34°40' E 135°14'0 0.0
2017-Dec-09 22:59N 34°40' E 135°14'0 0.0
2017-Dec-09 22:29N 34°40' E 135°14'0 0.0
2017-Dec-09 21:59N 34°40' E 135°14'0 0.0
2017-Dec-09 21:29N 34°40' E 135°14'0 0.0
2017-Dec-09 20:59N 34°40' E 135°14'0 0.0
2017-Dec-09 20:29N 34°40' E 135°14'0 0.0
2017-Dec-09 19:59N 34°40' E 135°14'0 0.0
2017-Dec-09 19:29N 34°40' E 135°14'0 0.0
2017-Dec-09 18:59N 34°40' E 135°14'0 0.0
2017-Dec-09 18:29N 34°40' E 135°14'0 0.0
2017-Dec-09 17:59N 34°40' E 135°14'0 0.0
2017-Dec-09 17:29N 34°40' E 135°14'0 0.0
2017-Dec-09 16:59N 34°40' E 135°14'0 0.0
2017-Dec-09 16:29N 34°40' E 135°14'0 0.0
2017-Dec-09 15:59N 34°40' E 135°14'0 0.0
2017-Dec-09 15:29N 34°40' E 135°14'0 0.0
2017-Dec-09 14:59N 34°40' E 135°14'0 0.0
2017-Dec-09 14:29N 34°40' E 135°14'0 0.0
2017-Dec-09 13:59N 34°40' E 135°14'0 0.0
2017-Dec-09 13:29N 34°40' E 135°14'0 0.0
2017-Dec-09 12:59N 34°40' E 135°14'0 0.0
2017-Dec-09 12:26N 34°40' E 135°14'0 0.0
2017-Dec-09 11:59N 34°40' E 135°14'0 0.0
2017-Dec-09 11:29N 34°40' E 135°14'0 0.0
2017-Dec-09 10:59N 34°40' E 135°14'0 0.0
2017-Dec-09 10:29N 34°40' E 135°14'0 0.0
2017-Dec-09 09:59N 34°40' E 135°14'0 0.0
2017-Dec-09 09:29N 34°40' E 135°14'0 0.0
2017-Dec-09 08:59N 34°40' E 135°14'0 0.0
2017-Dec-09 08:29N 34°40' E 135°14'0 0.0
2017-Dec-09 07:59N 34°40' E 135°14'0 0.0
2017-Dec-09 07:26N 34°40' E 135°14'0 0.0
2017-Dec-09 06:59N 34°40' E 135°14'0 0.0
2017-Dec-09 06:30N 34°40' E 135°14'1 2.8
2017-Dec-09 06:00N 34°41' E 135°15'0 0.0
2017-Dec-09 05:30N 34°41' E 135°15'0 0.0
2017-Dec-09 05:00N 34°41' E 135°15'0 0.0
2017-Dec-09 04:30N 34°41' E 135°15'0 0.0
2017-Dec-09 04:00N 34°41' E 135°15'0 0.0
2017-Dec-09 03:30N 34°41' E 135°15'0 0.1
2017-Dec-09 03:01N 34°41' E 135°15'3 6.5
2017-Dec-09 02:30N 34°38' E 135°14'4 7.9
2017-Dec-09 02:01N 34°36' E 135°10'4 8.5
2017-Dec-09 01:30N 34°35' E 135°05'3 6.3
2017-Dec-09 01:00N 34°37' E 135°02'3 5.8
2017-Dec-09 00:30N 34°36' E 134°58'4 8.1
2017-Dec-09 00:01N 34°35' E 134°54'4 8.6
2017-Dec-08 23:31N 34°33' E 134°49'4 8.5
2017-Dec-08 23:00N 34°31' E 134°44'4 8.6
2017-Dec-08 22:30N 34°30' E 134°39'4 8.4
2017-Dec-08 22:00N 34°28' E 134°34'4 8.6
2017-Dec-08 21:30N 34°27' E 134°30'4 8.4
2017-Dec-08 21:00N 34°25' E 134°25'4 8.8
2017-Dec-08 20:30N 34°24' E 134°20'6 9.4
2017-Dec-08 19:54N 34°24' E 134°13'4 9.8
2017-Dec-08 19:28N 34°26' E 134°08'69 7.9
2017-Dec-08 10:47N 34°06' E 132°48'3 7.3
2017-Dec-08 10:24N 34°05' E 132°45'3 7.5
2017-Dec-08 10:00N 34°03' E 132°42'4 7.5
2017-Dec-08 09:30N 34°01' E 132°38'4 7.3
2017-Dec-08 09:00N 33°59' E 132°35'3 6.2
2017-Dec-08 08:30N 33°57' E 132°32'3 6.7
2017-Dec-08 08:00N 33°55' E 132°29'6 7.0
2017-Dec-08 07:06N 33°51' E 132°23'1 6.1
2017-Dec-08 07:00N 33°50' E 132°22'5 7.6
2017-Dec-08 06:24N 33°50' E 132°17'4 8.1
2017-Dec-08 05:54N 33°49' E 132°12'3 7.7
2017-Dec-08 05:30N 33°48' E 132°09'4 8.0
2017-Dec-08 05:00N 33°46' E 132°05'7 7.6
2017-Dec-08 04:08N 33°49' E 131°58'8 8.3
2017-Dec-08 03:09N 33°54' E 131°50'1 8.1
2017-Dec-08 02:59N 33°55' E 131°49'4 8.0
2017-Dec-08 02:26N 33°59' E 131°45'3 7.5
2017-Dec-08 02:00N 34°01' E 131°46'1 0.4
2017-Dec-07 23:01N 34°02' E 131°47'0 0.1
2017-Dec-07 22:56N 34°02' E 131°47'2 4.1
2017-Dec-07 22:30N 34°01' E 131°45'1 1.2
2017-Dec-07 21:56N 34°01' E 131°45'0 0.0
2017-Dec-07 21:20N 34°01' E 131°45'0 0.0
2017-Dec-07 20:56N 34°01' E 131°45'0 0.0
2017-Dec-07 20:26N 34°01' E 131°45'0 0.1
2017-Dec-07 19:56N 34°01' E 131°45'0 0.0
2017-Dec-07 19:02N 34°01' E 131°45'0 0.1
2017-Dec-07 18:56N 34°01' E 131°45'0 0.0
2017-Dec-07 18:17N 34°01' E 131°45'0 0.1
2017-Dec-07 17:44N 34°01' E 131°45'0 0.2
2017-Dec-07 17:26N 34°01' E 131°45'0 1.0
2017-Dec-07 16:59N 34°00' E 131°45'3 7.1
2017-Dec-07 16:30N 33°57' E 131°46'4 7.5
2017-Dec-07 16:00N 33°55' E 131°50'4 7.7
2017-Dec-07 15:30N 33°52' E 131°53'4 7.8
2017-Dec-07 15:00N 33°50' E 131°57'4 8.0
2017-Dec-07 14:30N 33°47' E 132°01'3 6.5
2017-Dec-07 13:59N 33°47' E 132°04'4 7.8
2017-Dec-07 13:28N 33°48' E 132°09'4 7.1
2017-Dec-07 12:55N 33°50' E 132°13'3 7.5
2017-Dec-07 12:30N 33°50' E 132°17'4 7.3
2017-Dec-07 11:59N 33°50' E 132°22'5 7.4
2017-Dec-07 11:17N 33°50' E 132°28'2 7.8
2017-Dec-07 10:58N 33°50' E 132°31'4 7.6
2017-Dec-07 10:29N 33°51' E 132°35'4 7.8
2017-Dec-07 10:00N 33°51' E 132°40'2 3.8
2017-Dec-07 09:30N 33°51' E 132°42'0 0.0
2017-Dec-07 08:49N 33°51' E 132°42'0 0.6
2017-Dec-07 08:31N 33°51' E 132°42'5 9.4
2017-Dec-07 07:59N 33°56' E 132°43'  
2017-Dec-04 05:22N 34°29' E 134°32'3 7.3
2017-Dec-04 04:57N 34°30' E 134°36'3 7.2
2017-Dec-04 04:30N 34°31' E 134°39'4 7.3
2017-Dec-04 04:00N 34°33' E 134°43'4 7.9
2017-Dec-04 03:30N 34°34' E 134°48'4 7.5
2017-Dec-04 03:00N 34°35' E 134°52'4 8.4
2017-Dec-04 02:30N 34°37' E 134°57'4 7.4
2017-Dec-04 02:00N 34°37' E 135°01'4 7.9
2017-Dec-04 01:30N 34°36' E 135°06'4 8.6
2017-Dec-04 01:00N 34°37' E 135°11'4 8.4
2017-Dec-04 00:30N 34°38' E 135°16'4 7.7
2017-Dec-04 00:00N 34°41' E 135°19'2 4.3
2017-Dec-03 23:31N 34°43' E 135°18'0 0.4
2017-Dec-03 22:59N 34°43' E 135°18'0 0.0
2017-Dec-03 22:29N 34°43' E 135°18'0 0.0
2017-Dec-03 21:59N 34°43' E 135°18'0 0.0
2017-Dec-03 21:29N 34°43' E 135°18'0 0.0
2017-Dec-03 20:59N 34°43' E 135°18'0 0.0
2017-Dec-03 20:29N 34°43' E 135°18'0 0.0
2017-Dec-03 19:59N 34°43' E 135°18'0 0.0
2017-Dec-03 19:29N 34°43' E 135°18'0 0.0
2017-Dec-03 18:59N 34°43' E 135°18'0 0.0
2017-Dec-03 18:29N 34°43' E 135°18'0 0.0
2017-Dec-03 17:59N 34°43' E 135°18'0 0.0
2017-Dec-03 17:29N 34°43' E 135°18'0 0.0
2017-Dec-03 16:59N 34°43' E 135°18'0 0.0
2017-Dec-03 16:29N 34°43' E 135°18'0 0.0
2017-Dec-03 15:59N 34°43' E 135°18'0 0.0
2017-Dec-03 15:29N 34°43' E 135°18'0 0.0
2017-Dec-03 14:59N 34°43' E 135°18'0 0.0
2017-Dec-03 14:29N 34°43' E 135°18'0 0.0
2017-Dec-03 13:59N 34°43' E 135°18'0 0.0
2017-Dec-03 13:29N 34°43' E 135°18'0 0.0
2017-Dec-03 12:59N 34°43' E 135°18'0 0.0
2017-Dec-03 12:29N 34°43' E 135°18'0 0.0
2017-Dec-03 11:59N 34°43' E 135°18'0 0.0
2017-Dec-03 11:29N 34°43' E 135°18'0 0.0
2017-Dec-03 10:59N 34°43' E 135°18'0 0.0
2017-Dec-03 10:29N 34°43' E 135°18'0 0.0
2017-Dec-03 09:59N 34°43' E 135°18'0 0.0
2017-Dec-03 09:29N 34°43' E 135°18'0 0.0
2017-Dec-03 08:59N 34°43' E 135°18'0 0.0
2017-Dec-03 08:29N 34°43' E 135°18'0 0.0
2017-Dec-03 07:59N 34°43' E 135°18'0 0.0
2017-Dec-03 07:29N 34°43' E 135°18'0 0.0
2017-Dec-03 06:59N 34°43' E 135°18'0 0.0
2017-Dec-03 06:29N 34°43' E 135°18'0 0.0
2017-Dec-03 05:59N 34°43' E 135°18'0 0.0
2017-Dec-03 05:29N 34°43' E 135°18'0 0.0
2017-Dec-03 04:59N 34°43' E 135°18'0 0.0
2017-Dec-03 04:29N 34°43' E 135°18'0 0.0
2017-Dec-03 03:59N 34°43' E 135°18'0 0.0
2017-Dec-03 03:29N 34°43' E 135°18'2 4.4
2017-Dec-03 03:00N 34°41' E 135°19'2 4.4
2017-Dec-03 02:31N 34°41' E 135°17'2 4.8
2017-Dec-03 02:01N 34°40' E 135°14'0 0.0
2017-Dec-03 01:28N 34°40' E 135°14'0 0.0
2017-Dec-03 00:58N 34°40' E 135°14'0 0.0
2017-Dec-03 00:28N 34°40' E 135°14'0 0.0
2017-Dec-02 23:58N 34°40' E 135°14'0 0.0
2017-Dec-02 23:28N 34°40' E 135°14'2 3.9
2017-Dec-02 23:00N 34°40' E 135°16'3 5.5
2017-Dec-02 22:30N 34°41' E 135°19'2 4.1
2017-Dec-02 21:58N 34°43' E 135°18'0 0.0
2017-Dec-02 21:28N 34°43' E 135°18'0 0.0
2017-Dec-02 20:58N 34°43' E 135°18'0 0.0
2017-Dec-02 20:28N 34°43' E 135°18'0 0.0
2017-Dec-02 19:58N 34°43' E 135°18'0 0.0
2017-Dec-02 19:28N 34°43' E 135°18'0 0.0
2017-Dec-02 18:58N 34°43' E 135°18'0 0.0
2017-Dec-02 18:28N 34°43' E 135°18'0 0.0
2017-Dec-02 17:58N 34°43' E 135°18'0 0.0
2017-Dec-02 17:28N 34°43' E 135°18'0 0.0
2017-Dec-02 16:58N 34°43' E 135°18'0 0.0
2017-Dec-02 16:28N 34°43' E 135°18'0 0.0
2017-Dec-02 15:58N 34°43' E 135°18'0 0.0
2017-Dec-02 15:28N 34°43' E 135°18'0 0.0
2017-Dec-02 14:58N 34°43' E 135°18'0 0.0
2017-Dec-02 14:28N 34°43' E 135°18'0 0.0
2017-Dec-02 13:58N 34°43' E 135°18'0 0.0
2017-Dec-02 13:28N 34°43' E 135°18'0 0.0
2017-Dec-02 12:58N 34°43' E 135°18'0 0.0
2017-Dec-02 12:28N 34°43' E 135°18'0 0.0
2017-Dec-02 11:58N 34°43' E 135°18'0 0.0
2017-Dec-02 11:28N 34°43' E 135°18'0 0.0
2017-Dec-02 10:58N 34°43' E 135°18'0 0.0
2017-Dec-02 10:28N 34°43' E 135°18'0 0.0
2017-Dec-02 09:58N 34°43' E 135°18'0 0.0
2017-Dec-02 09:28N 34°43' E 135°18'0 0.0
2017-Dec-02 08:58N 34°43' E 135°18'0 0.0
2017-Dec-02 08:28N 34°43' E 135°18'0 0.0
2017-Dec-02 07:58N 34°43' E 135°18'0 0.0
2017-Dec-02 07:28N 34°43' E 135°18'0 0.0
2017-Dec-02 06:58N 34°43' E 135°18'2 4.8
2017-Dec-02 06:30N 34°41' E 135°19'3 6.2
2017-Dec-02 06:00N 34°41' E 135°16'1 1.0
2017-Dec-02 05:30N 34°41' E 135°15'0 0.0
2017-Dec-02 05:00N 34°41' E 135°15'0 0.0
2017-Dec-02 04:30N 34°41' E 135°15'0 0.0
2017-Dec-02 04:00N 34°41' E 135°15'0 0.0
2017-Dec-02 03:30N 34°41' E 135°15'1 2.5
2017-Dec-02 03:00N 34°40' E 135°15'4 7.1
2017-Dec-02 02:30N 34°37' E 135°13'4 8.3
2017-Dec-02 02:00N 34°35' E 135°08'4 7.9
2017-Dec-02 01:30N 34°36' E 135°03'4 8.1
2017-Dec-02 01:00N 34°36' E 134°58'4 8.1
2017-Dec-02 00:30N 34°35' E 134°54'3 6.4
2017-Dec-02 00:00N 34°33' E 134°50'3 6.3
2017-Dec-01 23:30N 34°32' E 134°47'3 6.9
2017-Dec-01 23:00N 34°31' E 134°43'4 7.6
2017-Dec-01 22:30N 34°30' E 134°38'4 7.7
2017-Dec-01 22:00N 34°28' E 134°34'4 7.7
2017-Dec-01 21:30N 34°27' E 134°30'4 7.7
2017-Dec-01 21:00N 34°25' E 134°25'4 7.8
2017-Dec-01 20:30N 34°24' E 134°21'4 7.3
2017-Dec-01 20:00N 34°24' E 134°17'4 7.2
2017-Dec-01 19:30N 34°24' E 134°12'4 7.2
2017-Dec-01 19:00N 34°26' E 134°08'  

Dump ship's entire track history